createdAt,value
2023-03-17T00:01:59.139Z,8.56
2023-03-17T00:04:28.391Z,8.57
2023-03-17T00:06:57.919Z,8.57
2023-03-17T00:09:26.191Z,8.58
2023-03-17T00:11:55.540Z,8.59
2023-03-17T00:14:23.283Z,8.58
2023-03-17T00:16:52.551Z,8.59
2023-03-17T00:19:27.647Z,8.61
2023-03-17T00:21:56.076Z,8.61
2023-03-17T00:24:23.859Z,8.61
2023-03-17T00:26:51.647Z,8.63
2023-03-17T00:29:21.029Z,8.65
2023-03-17T00:31:51.545Z,8.64
2023-03-17T00:34:23.570Z,8.62
2023-03-17T00:36:52.400Z,8.65
2023-03-17T00:39:20.730Z,8.65
2023-03-17T00:41:49.034Z,8.65
2023-03-17T00:44:17.609Z,8.65
2023-03-17T00:46:47.045Z,8.66
2023-03-17T00:49:20.812Z,8.65
2023-03-17T00:51:50.759Z,8.65
2023-03-17T00:54:20.633Z,8.65
2023-03-17T00:56:49.991Z,8.66
2023-03-17T00:59:25.535Z,8.66
2023-03-17T01:01:56.145Z,8.64
2023-03-17T01:04:24.269Z,8.62
2023-03-17T01:06:53.215Z,8.65
2023-03-17T01:09:24.147Z,8.64
2023-03-17T01:11:52.117Z,8.63
2023-03-17T01:14:20.062Z,8.62
2023-03-17T01:16:48.765Z,8.62
2023-03-17T01:19:17.900Z,8.64
2023-03-17T01:21:46.453Z,8.60
2023-03-17T01:24:14.603Z,8.61
2023-03-17T01:26:42.617Z,8.60
2023-03-17T01:29:10.487Z,8.58
2023-03-17T01:31:39.191Z,8.58
2023-03-17T01:34:07.050Z,8.58
2023-03-17T01:36:37.535Z,8.59
2023-03-17T01:39:07.300Z,8.55
2023-03-17T01:41:37.528Z,8.53
2023-03-17T01:44:05.776Z,8.54
2023-03-17T01:46:35.550Z,8.54
2023-03-17T01:49:12.805Z,8.54
2023-03-17T01:51:47.634Z,8.52
2023-03-17T01:54:19.845Z,8.50
2023-03-17T01:56:51.703Z,8.48
2023-03-17T01:59:24.641Z,8.50
2023-03-17T02:01:55.420Z,8.23
2023-03-17T02:04:25.957Z,8.44
2023-03-17T02:06:58.438Z,8.48
2023-03-17T02:09:28.547Z,8.46
2023-03-17T02:11:57.605Z,8.47
2023-03-17T02:14:25.541Z,8.47
2023-03-17T02:16:53.776Z,8.47
2023-03-17T02:19:21.570Z,8.46
2023-03-17T02:21:53.748Z,8.48
2023-03-17T02:24:27.545Z,8.47
2023-03-17T02:26:59.408Z,8.46
2023-03-17T02:29:27.692Z,8.46
2023-03-17T02:31:55.460Z,8.46
2023-03-17T02:34:23.534Z,8.47
2023-03-17T02:36:52.691Z,8.47
2023-03-17T02:39:20.713Z,8.47
2023-03-17T02:41:48.590Z,8.46
2023-03-17T02:44:16.484Z,8.46
2023-03-17T02:46:44.341Z,8.45
2023-03-17T02:49:12.892Z,8.46
2023-03-17T02:51:40.821Z,8.45
2023-03-17T02:54:10.198Z,8.45
2023-03-17T02:56:38.509Z,8.43
2023-03-17T02:59:07.215Z,8.43
2023-03-17T03:01:35.486Z,8.41
2023-03-17T03:04:03.989Z,8.40
2023-03-17T03:06:32.718Z,8.39
2023-03-17T03:09:00.632Z,8.40
2023-03-17T03:11:29.931Z,8.40
2023-03-17T03:13:57.818Z,8.38
2023-03-17T03:16:25.590Z,8.36
2023-03-17T03:18:53.406Z,8.36
2023-03-17T03:21:22.064Z,8.34
2023-03-17T03:23:50.368Z,8.34
2023-03-17T03:26:18.257Z,8.33
2023-03-17T03:28:47.523Z,8.32
2023-03-17T03:31:15.357Z,8.30
2023-03-17T03:33:44.065Z,8.30
2023-03-17T03:36:13.395Z,8.29
2023-03-17T03:38:41.617Z,8.29
2023-03-17T03:41:09.525Z,8.28
2023-03-17T03:43:37.365Z,8.27
2023-03-17T03:46:06.657Z,8.27
2023-03-17T03:48:34.931Z,8.26
2023-03-17T03:51:04.015Z,8.24
2023-03-17T03:53:31.937Z,8.24
2023-03-17T03:55:59.765Z,8.23
2023-03-17T03:58:27.579Z,8.22
2023-03-17T04:00:55.374Z,8.21
2023-03-17T04:03:24.770Z,8.23
2023-03-17T04:05:52.589Z,8.21
2023-03-17T04:08:20.918Z,8.20
2023-03-17T04:10:48.763Z,8.20
2023-03-17T04:13:16.695Z,8.20
2023-03-17T04:15:44.464Z,8.20
2023-03-17T04:18:13.205Z,8.18
2023-03-17T04:20:42.385Z,8.19
2023-03-17T04:23:10.190Z,8.17
2023-03-17T04:25:38.103Z,8.18
2023-03-17T04:28:06.424Z,8.17
2023-03-17T04:30:34.477Z,8.16
2023-03-17T04:33:02.442Z,8.16
2023-03-17T04:35:30.570Z,8.17
2023-03-17T04:37:59.747Z,8.17
2023-03-17T04:40:27.616Z,8.15
2023-03-17T04:42:55.446Z,8.16
2023-03-17T04:45:23.224Z,8.15
2023-03-17T04:47:51.002Z,8.15
2023-03-17T04:50:18.994Z,8.12
2023-03-17T04:52:46.877Z,8.12
2023-03-17T04:55:16.566Z,8.12
2023-03-17T04:57:44.889Z,8.11
2023-03-17T05:00:15.418Z,8.10
2023-03-17T05:02:43.376Z,8.10
2023-03-17T05:05:12.249Z,8.09
2023-03-17T05:07:40.429Z,8.08
2023-03-17T05:10:09.422Z,8.06
2023-03-17T05:12:38.613Z,8.07
2023-03-17T05:15:07.904Z,8.07
2023-03-17T05:17:35.785Z,8.06
2023-03-17T05:20:04.293Z,8.05
2023-03-17T05:22:32.465Z,8.04
2023-03-17T05:25:00.427Z,8.03
2023-03-17T05:27:28.247Z,8.03
2023-03-17T05:29:57.663Z,8.05
2023-03-17T05:32:25.784Z,8.01
2023-03-17T05:34:53.808Z,8.01
2023-03-17T05:37:21.636Z,8.01
2023-03-17T05:39:49.589Z,8.01
2023-03-17T05:42:17.388Z,8.01
2023-03-17T05:44:45.281Z,8.01
2023-03-17T05:47:14.688Z,8.02
2023-03-17T05:49:42.780Z,8.00
2023-03-17T05:52:10.767Z,8.01
2023-03-17T05:54:38.606Z,8.01
2023-03-17T05:57:06.458Z,8.01
2023-03-17T05:59:34.920Z,8.01
2023-03-17T06:02:03.071Z,8.01
2023-03-17T06:04:32.873Z,8.02
2023-03-17T06:07:00.725Z,8.00
2023-03-17T06:09:28.476Z,8.01
2023-03-17T06:11:56.401Z,8.02
2023-03-17T06:14:27.012Z,8.00
2023-03-17T06:16:55.241Z,8.01
2023-03-17T06:19:23.012Z,8.01
2023-03-17T06:21:52.216Z,8.03
2023-03-17T06:24:20.237Z,8.02
2023-03-17T06:26:48.101Z,8.02
2023-03-17T06:29:15.879Z,8.03
2023-03-17T06:31:50.462Z,8.05
2023-03-17T06:34:18.936Z,8.06
2023-03-17T06:36:46.734Z,8.07
2023-03-17T06:39:18.083Z,8.10
2023-03-17T06:41:46.068Z,8.10
2023-03-17T06:44:14.124Z,8.13
2023-03-17T06:46:42.449Z,8.16
2023-03-17T06:49:13.392Z,8.18
2023-03-17T06:51:41.742Z,8.22
2023-03-17T06:54:09.628Z,8.29
2023-03-17T06:56:38.905Z,8.38
2023-03-17T06:59:06.728Z,8.43
2023-03-17T07:01:34.719Z,8.53
2023-03-17T07:04:02.552Z,8.62
2023-03-17T07:06:31.013Z,8.70
2023-03-17T07:09:00.979Z,8.84
2023-03-17T07:11:30.732Z,8.98
2023-03-17T07:13:59.947Z,9.13
2023-03-17T07:16:27.875Z,9.26
2023-03-17T07:18:55.808Z,9.42
2023-03-17T07:21:23.688Z,9.58
2023-03-17T07:23:51.474Z,9.73
2023-03-17T07:26:19.476Z,9.89
2023-03-17T07:28:47.714Z,10.05
2023-03-17T07:31:16.917Z,10.21
2023-03-17T07:33:44.871Z,10.34
2023-03-17T07:36:13.321Z,10.49
2023-03-17T07:38:41.698Z,10.64
2023-03-17T07:41:10.128Z,10.78
2023-03-17T07:43:38.699Z,10.92
2023-03-17T07:46:07.345Z,11.05
2023-03-17T07:48:40.806Z,11.18
2023-03-17T07:51:13.801Z,11.31
2023-03-17T07:53:41.848Z,11.09
2023-03-17T07:56:09.917Z,11.43
2023-03-17T07:58:38.097Z,11.53
2023-03-17T08:01:06.887Z,11.59
2023-03-17T08:03:38.628Z,11.64
2023-03-17T08:06:08.748Z,11.64
2023-03-17T08:08:36.928Z,11.63
2023-03-17T08:11:06.322Z,11.64
2023-03-17T08:13:34.699Z,11.59
2023-03-17T08:16:02.753Z,11.54
2023-03-17T08:18:31.029Z,11.50
2023-03-17T08:21:00.260Z,11.47
2023-03-17T08:23:28.025Z,11.40
2023-03-17T08:25:58.348Z,11.35
2023-03-17T08:28:28.209Z,11.29
2023-03-17T08:30:57.845Z,11.23
2023-03-17T08:33:25.805Z,11.18
2023-03-17T08:35:53.718Z,11.15
2023-03-17T08:38:22.893Z,11.13
2023-03-17T08:40:50.924Z,11.09
2023-03-17T08:43:19.018Z,11.08
2023-03-17T08:45:46.929Z,11.07
2023-03-17T08:48:15.283Z,11.06
2023-03-17T08:50:43.280Z,11.05
2023-03-17T08:53:11.890Z,11.06
2023-03-17T08:55:41.162Z,11.08
2023-03-17T08:58:09.428Z,11.09
2023-03-17T09:00:37.285Z,11.12
2023-03-17T09:03:05.753Z,11.14
2023-03-17T09:05:35.679Z,11.17
2023-03-17T09:08:05.658Z,11.18
2023-03-17T09:10:33.927Z,11.23
2023-03-17T09:13:04.657Z,11.28
2023-03-17T09:15:33.964Z,11.30
2023-03-17T09:18:03.288Z,11.34
2023-03-17T09:20:31.617Z,11.35
2023-03-17T09:23:00.319Z,11.38
2023-03-17T09:25:28.548Z,11.42
2023-03-17T09:27:56.642Z,11.42
2023-03-17T09:30:27.237Z,11.48
2023-03-17T09:32:55.071Z,11.51
2023-03-17T09:35:22.942Z,11.53
2023-03-17T09:37:51.586Z,11.58
2023-03-17T09:40:22.409Z,11.63
2023-03-17T09:43:01.475Z,11.68
2023-03-17T09:45:34.664Z,11.71
2023-03-17T09:48:29.933Z,11.76
2023-03-17T09:51:00.006Z,11.76
2023-03-17T09:53:34.062Z,11.81
2023-03-17T09:56:07.769Z,11.86
2023-03-17T09:58:38.365Z,11.89
2023-03-17T10:01:10.362Z,11.94
2023-03-17T10:03:38.938Z,11.95
2023-03-17T10:06:19.952Z,12.04
2023-03-17T10:08:56.205Z,12.07
2023-03-17T10:11:32.969Z,12.13
2023-03-17T10:14:04.345Z,12.16
2023-03-17T10:16:42.445Z,12.22
2023-03-17T10:19:22.367Z,12.24
2023-03-17T10:21:58.814Z,12.28
2023-03-17T10:24:28.064Z,12.28
2023-03-17T10:26:59.170Z,12.33
2023-03-17T10:29:27.696Z,12.33
2023-03-17T10:31:58.586Z,12.39
2023-03-17T10:34:29.896Z,12.43
2023-03-17T10:37:02.565Z,12.48
2023-03-17T10:39:32.764Z,12.49
2023-03-17T10:42:09.667Z,12.60
2023-03-17T10:44:44.958Z,12.66
2023-03-17T10:47:32.672Z,12.70
2023-03-17T10:50:05.681Z,12.78
2023-03-17T10:52:39.622Z,12.86
2023-03-17T10:55:09.092Z,12.90
2023-03-17T10:57:38.785Z,12.98
2023-03-17T11:00:15.675Z,13.08
2023-03-17T11:02:50.093Z,13.16
2023-03-17T11:05:23.504Z,13.27
2023-03-17T11:07:57.586Z,13.33
2023-03-17T11:10:27.961Z,13.46
2023-03-17T11:13:00.491Z,13.56
2023-03-17T11:15:34.816Z,13.65
2023-03-17T11:18:05.472Z,13.74
2023-03-17T11:20:43.776Z,13.84
2023-03-17T11:23:22.271Z,13.93
2023-03-17T11:25:58.273Z,14.02
2023-03-17T11:28:35.020Z,14.10
2023-03-17T11:31:10.558Z,14.20
2023-03-17T11:33:47.871Z,14.28
2023-03-17T11:36:30.779Z,14.35
2023-03-17T11:39:04.150Z,14.41
2023-03-17T11:42:00.142Z,14.48
2023-03-17T11:44:55.681Z,14.56
2023-03-17T11:47:42.837Z,14.62
2023-03-17T11:50:24.364Z,14.69
2023-03-17T11:53:09.891Z,14.70
2023-03-17T11:55:46.381Z,14.74
2023-03-17T11:58:20.739Z,14.77
2023-03-17T12:01:20.902Z,14.81
2023-03-17T12:03:53.737Z,14.78
2023-03-17T12:06:32.895Z,14.82
2023-03-17T12:09:07.805Z,14.82
2023-03-17T12:11:41.730Z,14.83
2023-03-17T12:14:22.650Z,14.84
2023-03-17T12:16:54.666Z,14.82
2023-03-17T12:19:27.980Z,14.80
2023-03-17T12:22:02.179Z,14.82
2023-03-17T12:24:36.481Z,14.81
2023-03-17T12:27:10.212Z,14.80
2023-03-17T12:29:47.257Z,14.81
2023-03-17T12:32:21.844Z,14.81
2023-03-17T12:34:53.890Z,14.82
2023-03-17T12:37:24.037Z,14.51
2023-03-17T12:39:58.787Z,14.77
2023-03-17T12:42:38.044Z,14.84
2023-03-17T12:45:23.223Z,14.86
2023-03-17T12:48:03.911Z,14.87
2023-03-17T12:50:56.426Z,14.89
2023-03-17T12:53:30.210Z,14.87
2023-03-17T12:56:04.711Z,14.89
2023-03-17T12:58:36.955Z,14.90
2023-03-17T13:01:14.732Z,14.90
2023-03-17T13:03:57.408Z,14.93
2023-03-17T13:06:26.030Z,14.89
2023-03-17T13:08:55.592Z,14.94
2023-03-17T13:11:46.586Z,14.95
2023-03-17T13:14:26.070Z,14.93
2023-03-17T13:17:04.527Z,14.92
2023-03-17T13:19:34.293Z,14.94
2023-03-17T13:22:35.245Z,14.92
2023-03-17T13:25:42.934Z,14.90
2023-03-17T13:28:42.645Z,14.92
2023-03-17T13:31:16.177Z,14.95
2023-03-17T13:33:46.503Z,14.98
2023-03-17T13:36:40.031Z,14.97
2023-03-17T13:39:35.831Z,15.00
2023-03-17T13:42:20.804Z,15.02
2023-03-17T13:45:07.215Z,15.05
2023-03-17T13:47:37.968Z,15.05
2023-03-17T13:50:10.374Z,15.07
2023-03-17T13:52:43.468Z,15.09
2023-03-17T13:55:38.694Z,15.10
2023-03-17T13:58:26.145Z,15.12
2023-03-17T14:01:03.901Z,15.17
2023-03-17T14:03:38.794Z,15.18
2023-03-17T14:06:08.922Z,15.20
2023-03-17T14:08:38.921Z,15.22
2023-03-17T14:11:09.916Z,15.24
2023-03-17T14:13:44.263Z,15.26
2023-03-17T14:16:20.109Z,15.26
2023-03-17T14:18:50.957Z,15.25
2023-03-17T14:21:24.435Z,15.25
2023-03-17T14:23:55.904Z,15.25
2023-03-17T14:26:25.483Z,15.24
2023-03-17T14:28:53.669Z,15.23
2023-03-17T14:31:25.364Z,15.25
2023-03-17T14:33:57.211Z,15.21
2023-03-17T14:36:25.968Z,15.21
2023-03-17T14:38:55.931Z,15.23
2023-03-17T14:41:26.017Z,15.22
2023-03-17T14:43:58.571Z,15.23
2023-03-17T14:46:29.082Z,14.94
2023-03-17T14:49:01.125Z,15.20
2023-03-17T14:51:31.863Z,15.22
2023-03-17T14:54:02.178Z,15.26
2023-03-17T14:56:39.112Z,14.97
2023-03-17T14:59:19.476Z,15.25
2023-03-17T15:01:49.225Z,15.28
2023-03-17T15:04:19.351Z,15.30
2023-03-17T15:06:49.855Z,15.31
2023-03-17T15:09:29.456Z,15.33
2023-03-17T15:12:04.086Z,15.31
2023-03-17T15:14:34.473Z,15.33
2023-03-17T15:17:06.670Z,15.32
2023-03-17T15:19:41.775Z,15.33
2023-03-17T15:22:25.121Z,15.32
2023-03-17T15:25:00.267Z,15.34
2023-03-17T15:27:29.424Z,15.32
2023-03-17T15:29:57.372Z,15.31
2023-03-17T15:32:28.669Z,15.33
2023-03-17T15:34:57.908Z,15.31
2023-03-17T15:37:27.573Z,15.31
2023-03-17T15:39:56.510Z,15.29
2023-03-17T15:42:26.167Z,15.29
2023-03-17T15:44:54.839Z,15.27
2023-03-17T15:47:24.885Z,15.28
2023-03-17T15:49:58.138Z,15.27
2023-03-17T15:52:37.444Z,15.25
2023-03-17T15:55:17.156Z,15.23
2023-03-17T15:57:53.816Z,15.20
2023-03-17T16:00:24.835Z,15.20
2023-03-17T16:02:55.037Z,15.20
2023-03-17T16:05:26.786Z,15.18
2023-03-17T16:07:55.221Z,15.16
2023-03-17T16:10:25.202Z,15.15
2023-03-17T16:12:53.241Z,15.12
2023-03-17T16:15:24.002Z,15.10
2023-03-17T16:17:54.985Z,15.08
2023-03-17T16:20:27.099Z,15.09
2023-03-17T16:22:57.100Z,15.03
2023-03-17T16:25:27.774Z,15.03
2023-03-17T16:27:57.354Z,15.02
2023-03-17T16:30:31.183Z,14.99
2023-03-17T16:33:04.658Z,14.97
2023-03-17T16:35:34.149Z,14.96
2023-03-17T16:38:02.191Z,14.93
2023-03-17T16:40:35.426Z,14.93
2023-03-17T16:43:12.953Z,14.91
2023-03-17T16:45:43.703Z,14.87
2023-03-17T16:48:14.262Z,14.87
2023-03-17T16:50:44.458Z,14.83
2023-03-17T16:53:12.610Z,14.81
2023-03-17T16:55:41.538Z,14.79
2023-03-17T16:58:16.947Z,14.79
2023-03-17T17:00:45.240Z,14.74
2023-03-17T17:03:13.781Z,14.73
2023-03-17T17:05:44.445Z,14.71
2023-03-17T17:08:12.654Z,14.68
2023-03-17T17:10:41.343Z,14.66
2023-03-17T17:13:11.120Z,14.67
2023-03-17T17:15:39.938Z,14.64
2023-03-17T17:18:12.557Z,14.63
2023-03-17T17:20:41.772Z,14.58
2023-03-17T17:23:15.301Z,14.59
2023-03-17T17:25:43.670Z,14.55
2023-03-17T17:28:13.508Z,14.54
2023-03-17T17:30:45.152Z,14.51
2023-03-17T17:33:13.628Z,14.46
2023-03-17T17:35:42.169Z,14.45
2023-03-17T17:38:18.116Z,14.47
2023-03-17T17:40:46.565Z,14.40
2023-03-17T17:43:14.611Z,14.39
2023-03-17T17:45:43.585Z,14.37
2023-03-17T17:48:11.791Z,14.34
2023-03-17T17:50:39.810Z,14.31
2023-03-17T17:53:11.693Z,14.30
2023-03-17T17:55:42.010Z,14.28
2023-03-17T17:58:10.029Z,14.24
2023-03-17T18:00:38.118Z,14.23
2023-03-17T18:03:05.968Z,14.22
2023-03-17T18:05:33.837Z,14.20
2023-03-17T18:08:02.570Z,14.18
2023-03-17T18:10:31.706Z,14.17
2023-03-17T18:13:01.096Z,14.15
2023-03-17T18:15:29.257Z,14.13
2023-03-17T18:17:57.441Z,14.12
2023-03-17T18:20:26.109Z,14.11
2023-03-17T18:22:54.104Z,14.09
2023-03-17T18:25:22.080Z,14.07
2023-03-17T18:27:50.337Z,14.07
2023-03-17T18:30:24.463Z,14.07
2023-03-17T18:32:57.208Z,14.05
2023-03-17T18:35:27.096Z,13.74
2023-03-17T18:37:57.250Z,13.95
2023-03-17T18:40:25.625Z,13.96
2023-03-17T18:42:53.944Z,13.94
2023-03-17T18:45:23.701Z,13.94
2023-03-17T18:47:52.177Z,13.90
2023-03-17T18:50:22.026Z,13.88
2023-03-17T18:52:50.351Z,13.86
2023-03-17T18:55:18.580Z,13.84
2023-03-17T18:57:46.999Z,13.80
2023-03-17T19:00:18.582Z,13.81
2023-03-17T19:02:48.139Z,13.78
2023-03-17T19:05:16.324Z,13.75
2023-03-17T19:07:44.289Z,13.73
2023-03-17T19:10:14.154Z,13.72
2023-03-17T19:12:42.444Z,13.69
2023-03-17T19:15:12.417Z,13.68
2023-03-17T19:17:40.944Z,13.65
2023-03-17T19:20:12.305Z,13.66
2023-03-17T19:22:40.355Z,13.62
2023-03-17T19:25:09.642Z,13.62
2023-03-17T19:27:37.917Z,13.60
2023-03-17T19:30:07.317Z,13.61
2023-03-17T19:32:35.399Z,13.58
2023-03-17T19:35:03.264Z,13.57
2023-03-17T19:37:33.694Z,13.58
2023-03-17T19:40:01.709Z,13.55
2023-03-17T19:42:29.582Z,13.54
2023-03-17T19:44:57.393Z,13.53
2023-03-17T19:47:25.249Z,13.53
2023-03-17T19:49:53.802Z,13.50
2023-03-17T19:52:21.777Z,13.49
2023-03-17T19:54:51.132Z,13.50
2023-03-17T19:57:20.865Z,13.48
2023-03-17T19:59:48.880Z,13.46
2023-03-17T20:02:17.660Z,13.46
2023-03-17T20:04:45.770Z,13.44
2023-03-17T20:07:13.646Z,13.43
2023-03-17T20:09:42.208Z,13.43
2023-03-17T20:12:11.529Z,13.43
2023-03-17T20:14:39.603Z,13.42
2023-03-17T20:17:08.061Z,13.42
2023-03-17T20:19:39.128Z,13.41
2023-03-17T20:22:07.488Z,13.41
2023-03-17T20:24:35.574Z,13.40
2023-03-17T20:27:04.162Z,13.41
2023-03-17T20:29:33.677Z,13.41
2023-03-17T20:32:02.035Z,13.39
2023-03-17T20:34:31.745Z,13.38
2023-03-17T20:37:00.018Z,13.37
2023-03-17T20:39:28.006Z,13.37
2023-03-17T20:41:57.478Z,13.36
2023-03-17T20:44:25.999Z,13.34
2023-03-17T20:46:55.430Z,13.33
2023-03-17T20:49:24.382Z,13.30
2023-03-17T20:51:52.610Z,13.29
2023-03-17T20:54:20.462Z,13.25
2023-03-17T20:56:52.326Z,13.21
2023-03-17T20:59:21.087Z,13.14
2023-03-17T21:01:49.925Z,13.11
2023-03-17T21:04:20.992Z,13.08
2023-03-17T21:06:49.758Z,13.02
2023-03-17T21:09:19.867Z,12.96
2023-03-17T21:11:49.206Z,12.92
2023-03-17T21:14:17.338Z,12.85
2023-03-17T21:16:47.180Z,12.82
2023-03-17T21:19:16.267Z,12.78
2023-03-17T21:21:45.999Z,12.75
2023-03-17T21:24:25.877Z,12.73
2023-03-17T21:26:53.953Z,12.67
2023-03-17T21:29:22.696Z,12.65
2023-03-17T21:31:50.771Z,12.65
2023-03-17T21:34:18.853Z,12.60
2023-03-17T21:36:48.126Z,12.60
2023-03-17T21:39:16.244Z,12.56
2023-03-17T21:41:44.824Z,12.52
2023-03-17T21:44:13.446Z,12.49
2023-03-17T21:46:41.481Z,12.46
2023-03-17T21:49:09.777Z,12.44
2023-03-17T21:51:37.625Z,12.41
2023-03-17T21:54:06.962Z,12.40
2023-03-17T21:56:34.773Z,12.36
2023-03-17T21:59:03.066Z,12.34
2023-03-17T22:01:30.939Z,12.33
2023-03-17T22:03:59.598Z,12.32
2023-03-17T22:06:29.419Z,12.29
2023-03-17T22:08:58.754Z,12.29
2023-03-17T22:11:28.041Z,12.29
2023-03-17T22:13:55.843Z,12.26
2023-03-17T22:16:24.367Z,12.25
2023-03-17T22:18:52.913Z,12.26
2023-03-17T22:21:21.898Z,12.25
2023-03-17T22:23:51.222Z,12.25
2023-03-17T22:26:21.574Z,12.24
2023-03-17T22:28:51.366Z,12.22
2023-03-17T22:31:25.007Z,12.18
2023-03-17T22:33:56.362Z,12.20
2023-03-17T22:36:28.364Z,12.18
2023-03-17T22:39:08.666Z,12.16
2023-03-17T22:41:43.284Z,12.13
2023-03-17T22:44:18.713Z,12.15
2023-03-17T22:46:48.580Z,12.09
2023-03-17T22:49:16.996Z,12.09
2023-03-17T22:51:46.644Z,12.06
2023-03-17T22:54:17.375Z,12.05
2023-03-17T22:56:52.065Z,12.02
2023-03-17T22:59:24.373Z,12.01
2023-03-17T23:01:52.357Z,11.97
2023-03-17T23:04:20.242Z,11.96
2023-03-17T23:06:48.822Z,11.94
2023-03-17T23:09:16.749Z,11.94
2023-03-17T23:11:44.720Z,11.92
2023-03-17T23:14:13.122Z,11.91
2023-03-17T23:16:42.974Z,11.92
2023-03-17T23:19:10.958Z,11.89
2023-03-17T23:21:47.820Z,11.91
2023-03-17T23:24:15.825Z,11.86
2023-03-17T23:26:46.355Z,11.88
2023-03-17T23:29:14.604Z,11.85
2023-03-17T23:31:44.122Z,11.87
2023-03-17T23:34:12.086Z,11.85
2023-03-17T23:36:40.610Z,11.84
2023-03-17T23:39:09.711Z,11.85
2023-03-17T23:41:37.744Z,11.83
2023-03-17T23:44:06.612Z,11.84
2023-03-17T23:46:34.505Z,11.81
2023-03-17T23:49:04.332Z,11.85
2023-03-17T23:51:32.194Z,11.82
2023-03-17T23:54:00.041Z,11.82
2023-03-17T23:56:28.350Z,11.82
2023-03-17T23:58:56.231Z,11.81
